Time;durP1;ratioP1;P1;durP2;ratioP2;P2;SDS_P1;SDS_P2;PMS_P1;PMS_P2;Temp;Humidity;BMP_temperature;BMP_pressure;BME280_temperature;BME280_humidity;BME280_pressure;Samples;Min_cycle;Max_cycle;Signal;HPM_P1;HPM_P2
2023/06/18 00:01:02;;;;;;;21.10;12.20;;;15.30;99.90;;;;;;2602908;54;22407;31
2023/06/18 00:03:41;;;;;;;20.30;13.48;;;15.20;99.90;;;;;;2701122;39;20602;31
2023/06/18 00:06:17;;;;;;;19.85;12.07;;;15.20;99.90;;;;;;2602841;54;20053;31
2023/06/18 00:08:53;;;;;;;20.97;12.17;;;15.20;99.90;;;;;;2602702;54;20022;31
2023/06/18 00:11:29;;;;;;;16.73;11.60;;;15.20;99.90;;;;;;2602650;54;21275;31
2023/06/18 00:14:06;;;;;;;24.20;15.40;;;15.20;99.90;;;;;;2602849;54;20901;31
2023/06/18 00:16:42;;;;;;;25.20;15.90;;;15.20;99.90;;;;;;2621428;47;20049;31
2023/06/18 00:19:21;;;;;;;23.13;15.33;;;15.10;99.90;;;;;;2606922;47;20873;31
2023/06/18 00:21:59;;;;;;;22.83;14.90;;;15.10;99.90;;;;;;2621490;47;20879;31
2023/06/18 00:24:33;;;;;;;19.10;13.98;;;15.00;99.90;;;;;;2602629;54;20904;31
2023/06/18 00:27:09;;;;;;;18.90;12.98;;;15.00;99.90;;;;;;2772844;31;20608;31
2023/06/18 00:29:46;;;;;;;18.08;14.27;;;15.00;99.90;;;;;;2603158;54;20026;31
2023/06/18 00:32:22;;;;;;;19.60;13.35;;;14.90;99.90;;;;;;2621645;46;20969;31
2023/06/18 00:35:00;;;;;;;17.05;12.18;;;14.90;99.90;;;;;;2622016;46;20026;31
2023/06/18 00:37:35;;;;;;;15.70;11.25;;;14.90;99.90;;;;;;2603540;54;20846;31
2023/06/18 00:40:15;;;;;;;18.10;10.90;;;14.80;99.90;;;;;;2603497;54;20022;31
2023/06/18 00:42:52;;;;;;;19.03;12.57;;;14.80;99.90;;;;;;2701971;39;21571;31
2023/06/18 00:45:29;;;;;;;15.13;10.77;;;14.70;99.90;;;;;;2701931;39;21654;31
2023/06/18 00:48:03;;;;;;;12.97;9.00;;;14.70;99.90;;;;;;2603264;54;21235;31
2023/06/18 00:50:41;;;;;;;13.85;10.20;;;14.70;99.90;;;;;;2603299;54;20850;31
2023/06/18 00:53:15;;;;;;;10.95;7.97;;;14.70;99.90;;;;;;2622163;46;20045;31
2023/06/18 00:55:51;;;;;;;16.92;9.82;;;14.70;99.90;;;;;;2603533;54;20053;31
2023/06/18 00:58:26;;;;;;;;;;;14.70;99.90;;;;;;2603695;54;20862;31
2023/06/18 01:01:00;;;;;;;16.55;10.82;;;14.70;99.90;;;;;;2603480;54;20024;31
2023/06/18 01:03:35;;;;;;;20.03;12.53;;;14.60;99.90;;;;;;2603562;54;20038;31
2023/06/18 01:06:17;;;;;;;14.88;10.98;;;14.50;99.90;;;;;;2621789;46;20772;31
2023/06/18 01:08:54;;;;;;;18.35;11.00;;;14.50;99.90;;;;;;2720460;39;21417;31
2023/06/18 01:11:29;;;;;;;;;;;14.50;99.90;;;;;;2603388;54;20749;31
2023/06/18 01:14:09;;;;;;;14.90;10.60;;;14.40;99.90;;;;;;2602956;54;20495;31
2023/06/18 01:16:45;;;;;;;18.90;10.73;;;14.30;99.90;;;;;;2603375;54;20030;31
2023/06/18 01:19:29;;;;;;;12.70;9.82;;;14.30;99.90;;;;;;2603258;54;20053;31
2023/06/18 01:22:11;;;;;;;10.60;8.63;;;14.30;99.90;;;;;;2603195;54;20023;31
2023/06/18 01:24:48;;;;;;;11.33;10.13;;;14.30;99.90;;;;;;2603411;54;20027;31
2023/06/18 01:27:24;;;;;;;10.48;9.25;;;14.30;99.90;;;;;;2603520;54;20026;31
2023/06/18 01:29:59;;;;;;;11.82;8.82;;;14.30;99.90;;;;;;2603300;54;20030;31
2023/06/18 01:32:33;;;;;;;11.98;8.68;;;14.30;99.90;;;;;;2603209;54;20717;31
2023/06/18 01:35:15;;;;;;;10.32;9.23;;;14.30;99.90;;;;;;2603311;54;20022;31
2023/06/18 01:38:06;;;;;;;11.70;9.85;;;14.30;99.90;;;;;;2603067;54;20054;31
2023/06/18 01:40:39;;;;;;;12.57;10.20;;;14.20;99.90;;;;;;2603368;54;20067;31
2023/06/18 01:43:15;;;;;;;15.47;10.47;;;14.20;99.90;;;;;;2603314;54;20870;31
2023/06/18 01:45:52;;;;;;;16.70;10.82;;;14.20;99.90;;;;;;2621502;46;20030;31
2023/06/18 01:48:27;;;;;;;11.85;8.75;;;14.10;99.90;;;;;;2603254;54;20023;31
2023/06/18 01:50:59;;;;;;;13.20;9.30;;;14.10;99.90;;;;;;2602916;54;21152;31
2023/06/18 01:53:38;;;;;;;12.80;10.45;;;14.10;99.90;;;;;;2603203;54;20026;31
2023/06/18 01:56:13;;;;;;;15.25;9.30;;;14.10;99.90;;;;;;2603370;54;20027;31
2023/06/18 01:58:48;;;;;;;14.63;10.23;;;14.10;99.90;;;;;;2603238;54;20026;31
2023/06/18 02:01:26;;;;;;;11.10;8.60;;;14.00;99.90;;;;;;2603006;54;20029;31
2023/06/18 02:04:00;;;;;;;13.90;9.25;;;14.00;99.90;;;;;;2621994;46;21921;31
2023/06/18 02:06:35;;;;;;;9.33;7.57;;;14.00;99.90;;;;;;2603168;54;21585;31
2023/06/18 02:09:14;;;;;;;11.00;8.45;;;14.00;99.90;;;;;;2603210;54;20064;31
2023/06/18 02:11:48;;;;;;;10.73;8.50;;;14.00;99.90;;;;;;2603254;54;20031;31
2023/06/18 02:14:22;;;;;;;10.82;8.23;;;14.00;99.90;;;;;;2621968;46;22002;31
2023/06/18 02:16:57;;;;;;;11.00;8.43;;;13.90;99.90;;;;;;2603282;54;20026;31
2023/06/18 02:19:31;;;;;;;13.20;9.30;;;13.90;99.90;;;;;;2621603;46;20855;31
2023/06/18 02:22:07;;;;;;;12.77;10.27;;;13.90;99.90;;;;;;2603101;54;20507;31
2023/06/18 02:24:45;;;;;;;13.75;10.80;;;13.90;99.90;;;;;;2603181;54;20026;31
2023/06/18 02:27:20;;;;;;;12.15;10.40;;;13.80;99.90;;;;;;2603160;54;20116;31
2023/06/18 02:29:55;;;;;;;13.55;10.05;;;13.80;99.90;;;;;;2603044;54;20031;31
2023/06/18 02:32:31;;;;;;;12.15;9.70;;;13.80;99.90;;;;;;2603139;54;20026;31
2023/06/18 02:35:07;;;;;;;10.80;7.80;;;13.80;99.90;;;;;;2621945;46;20866;31
2023/06/18 02:37:43;;;;;;;9.88;7.78;;;13.80;99.90;;;;;;2603121;54;20030;31
2023/06/18 02:40:20;;;;;;;12.10;9.63;;;13.80;99.90;;;;;;2621405;46;20030;31
2023/06/18 02:42:54;;;;;;;11.85;8.02;;;13.70;99.90;;;;;;2603084;54;21162;31
2023/06/18 02:45:30;;;;;;;12.82;8.90;;;13.70;99.90;;;;;;2603168;54;20881;31
2023/06/18 02:48:04;;;;;;;13.45;9.75;;;13.70;99.90;;;;;;2603271;54;20838;31
2023/06/18 02:50:37;;;;;;;14.23;9.68;;;13.70;99.90;;;;;;2621372;46;22360;31
2023/06/18 02:53:14;;;;;;;13.43;9.07;;;13.70;99.90;;;;;;2602889;54;20894;31
2023/06/18 02:55:53;;;;;;;15.98;11.60;;;13.70;99.90;;;;;;2603218;54;20094;31
2023/06/18 02:58:28;;;;;;;13.90;9.70;;;13.70;99.90;;;;;;2603149;54;20027;31
2023/06/18 03:01:06;;;;;;;15.45;10.55;;;13.70;99.90;;;;;;2603110;54;20814;31
2023/06/18 03:03:45;;;;;;;18.70;13.33;;;13.70;99.90;;;;;;2603046;54;20113;31
2023/06/18 03:06:21;;;;;;;22.55;14.65;;;13.70;99.90;;;;;;2602887;54;20031;31
2023/06/18 03:08:56;;;;;;;20.08;14.13;;;13.60;99.90;;;;;;2602888;54;21270;31
2023/06/18 03:11:39;;;;;;;19.80;13.15;;;13.60;99.90;;;;;;2602841;54;20093;31
2023/06/18 03:14:16;;;;;;;22.60;14.70;;;13.60;99.90;;;;;;2602745;54;20894;31
2023/06/18 03:16:51;;;;;;;24.63;15.60;;;13.60;99.90;;;;;;2603018;54;20023;31
2023/06/18 03:19:27;;;;;;;28.08;17.67;;;13.60;99.90;;;;;;2602979;54;20884;31
2023/06/18 03:22:04;;;;;;;19.33;13.03;;;13.50;99.90;;;;;;2602994;54;20022;31
2023/06/18 03:24:41;;;;;;;20.23;15.10;;;13.60;99.90;;;;;;2603109;54;20869;31
2023/06/18 03:27:20;;;;;;;20.17;14.27;;;13.60;99.90;;;;;;2602894;54;20865;31
2023/06/18 03:29:55;;;;;;;19.17;14.00;;;13.60;99.90;;;;;;2602826;54;20766;31
2023/06/18 03:32:32;;;;;;;25.42;17.30;;;13.60;99.90;;;;;;2701578;39;21079;31
2023/06/18 03:35:10;;;;;;;23.55;16.65;;;13.60;99.90;;;;;;2602808;54;20026;31
2023/06/18 03:37:46;;;;;;;29.37;18.80;;;13.60;99.90;;;;;;2603035;54;20723;31
2023/06/18 03:40:19;;;;;;;19.80;14.70;;;13.60;99.90;;;;;;2701490;39;22600;31
2023/06/18 03:42:58;;;;;;;25.30;17.95;;;13.60;99.90;;;;;;2621114;46;20037;31
2023/06/18 03:45:33;;;;;;;31.85;21.35;;;13.60;99.90;;;;;;2602707;54;20034;31
2023/06/18 03:48:09;;;;;;;30.15;19.10;;;13.60;99.90;;;;;;2602845;54;20097;31
2023/06/18 03:50:51;;;;;;;30.43;20.03;;;13.60;99.90;;;;;;2602778;54;20030;31
2023/06/18 03:53:27;;;;;;;31.25;20.70;;;13.70;99.90;;;;;;2602728;54;20026;31
2023/06/18 03:56:03;;;;;;;32.70;22.83;;;13.70;99.90;;;;;;2602656;54;20809;31
2023/06/18 03:58:40;;;;;;;32.95;22.40;;;13.80;99.90;;;;;;2602570;54;20026;31
2023/06/18 04:01:16;;;;;;;33.20;23.52;;;13.80;99.90;;;;;;2603243;54;20080;31
2023/06/18 04:03:51;;;;;;;34.92;23.85;;;14.00;99.90;;;;;;2603403;54;20765;31
2023/06/18 04:06:28;;;;;;;30.50;22.43;;;14.20;99.90;;;;;;2603596;54;20578;31
2023/06/18 04:09:04;;;;;;;32.08;23.20;;;14.40;99.90;;;;;;2603684;54;20053;31
2023/06/18 04:11:42;;;;;;;32.65;23.40;;;14.60;99.90;;;;;;2603443;54;20033;31
2023/06/18 04:14:19;;;;;;;29.17;21.02;;;14.70;99.90;;;;;;2603371;54;20146;31
2023/06/18 04:16:56;;;;;;;32.58;21.98;;;14.90;99.90;;;;;;2603681;54;20023;31
2023/06/18 04:19:30;;;;;;;27.17;19.77;;;15.10;99.90;;;;;;2603527;54;20850;31
2023/06/18 04:22:04;;;;;;;28.85;20.52;;;15.30;99.90;;;;;;2603474;54;22483;31
2023/06/18 04:24:41;;;;;;;28.17;19.48;;;15.50;99.90;;;;;;2603388;54;20898;31
2023/06/18 04:27:17;;;;;;;30.75;18.05;;;15.70;99.90;;;;;;2603537;54;20876;31
2023/06/18 04:29:56;;;;;;;24.38;17.67;;;15.80;99.90;;;;;;2603539;54;20042;31
2023/06/18 04:32:31;;;;;;;21.45;15.60;;;16.00;99.90;;;;;;2701926;39;20498;31
2023/06/18 04:35:07;;;;;;;23.20;16.30;;;16.30;99.90;;;;;;2622148;46;20766;31
2023/06/18 04:37:42;;;;;;;21.80;17.17;;;16.50;99.90;;;;;;2603575;54;21207;31
2023/06/18 04:40:18;;;;;;;19.08;13.45;;;16.70;99.90;;;;;;2603382;54;20026;31
2023/06/18 04:42:54;;;;;;;19.58;14.32;;;16.90;99.90;;;;;;2603366;54;20568;31
2023/06/18 04:45:38;;;;;;;20.58;13.60;;;17.00;99.90;;;;;;2603354;54;20818;31
2023/06/18 04:48:14;;;;;;;15.82;13.02;;;17.10;99.90;;;;;;2603402;54;20798;31
2023/06/18 04:50:49;;;;;;;19.65;13.05;;;17.30;99.90;;;;;;2701841;39;21317;31
2023/06/18 04:53:25;;;;;;;17.55;12.80;;;17.50;99.90;;;;;;2603333;54;20901;31
2023/06/18 04:56:00;;;;;;;16.70;11.40;;;17.60;99.90;;;;;;2621958;46;19994;31
2023/06/18 04:58:42;;;;;;;16.60;12.38;;;17.70;99.90;;;;;;2603345;54;20069;31
2023/06/18 05:01:21;;;;;;;17.55;12.55;;;17.90;99.90;;;;;;2603207;54;20030;31
2023/06/18 05:03:55;;;;;;;12.80;10.63;;;18.10;99.90;;;;;;2603304;54;20610;31
2023/06/18 05:06:31;;;;;;;15.70;11.63;;;18.40;99.90;;;;;;2603482;54;20058;31
2023/06/18 05:09:09;;;;;;;14.27;11.63;;;18.50;99.90;;;;;;2603286;54;20739;31
2023/06/18 05:11:46;;;;;;;13.65;11.20;;;18.60;99.90;;;;;;2603261;54;20317;31
2023/06/18 05:14:21;;;;;;;13.50;10.70;;;18.70;99.90;;;;;;2603368;54;20049;31
2023/06/18 05:17:00;;;;;;;14.60;11.07;;;18.80;99.90;;;;;;2603443;54;20247;31
2023/06/18 05:19:35;;;;;;;13.70;9.60;;;19.00;99.90;;;;;;2603529;54;20933;31
2023/06/18 05:22:11;;;;;;;11.43;10.23;;;19.20;99.90;;;;;;2603276;54;20858;31
2023/06/18 05:24:48;;;;;;;14.43;10.20;;;19.40;99.90;;;;;;2603181;54;20046;31
2023/06/18 05:27:24;;;;;;;15.27;10.35;;;19.60;99.90;;;;;;2621796;46;20022;31
2023/06/18 05:30:00;;;;;;;10.80;9.75;;;19.80;99.90;;;;;;2603281;54;20922;31
2023/06/18 05:32:39;;;;;;;12.77;9.63;;;19.90;99.90;;;;;;2603377;54;20050;31
2023/06/18 05:35:19;;;;;;;13.70;9.65;;;20.10;99.90;;;;;;2603291;54;20861;31
2023/06/18 05:38:03;;;;;;;11.75;10.45;;;20.30;99.90;;;;;;2603134;54;20034;31
2023/06/18 05:40:39;;;;;;;12.00;10.00;;;20.40;99.90;;;;;;2603201;54;20031;31
2023/06/18 05:43:16;;;;;;;11.48;9.73;;;20.60;99.90;;;;;;2621764;46;20029;31
2023/06/18 05:45:58;;;;;;;13.93;10.27;;;20.80;99.90;;;;;;2603303;54;20049;31
2023/06/18 05:48:36;;;;;;;;;;;21.00;99.90;;;;;;2603491;54;20895;31
2023/06/18 05:51:20;;;;;;;11.52;10.40;;;21.20;99.90;;;;;;2603107;54;20383;31
2023/06/18 05:53:57;;;;;;;13.85;10.80;;;21.50;99.90;;;;;;2701573;39;20592;31
2023/06/18 05:56:33;;;;;;;11.75;10.13;;;21.60;99.90;;;;;;2603010;54;20793;31
2023/06/18 05:59:10;;;;;;;10.88;9.77;;;21.80;99.90;;;;;;2603148;54;21003;31
2023/06/18 06:01:54;;;;;;;11.35;10.25;;;22.00;99.90;;;;;;2603329;54;20052;31
2023/06/18 06:04:34;;;;;;;10.77;9.73;;;22.30;99.90;;;;;;2603101;54;20503;31
2023/06/18 06:07:09;;;;;;;11.13;9.93;;;22.40;99.90;;;;;;2603157;54;20034;31
2023/06/18 06:09:45;;;;;;;11.35;10.00;;;22.60;99.90;;;;;;2621457;46;20242;31
2023/06/18 06:12:23;;;;;;;10.48;9.40;;;22.80;99.90;;;;;;2621460;46;20081;31
2023/06/18 06:14:59;;;;;;;11.20;10.00;;;22.80;99.90;;;;;;2602920;54;20038;31
2023/06/18 06:17:36;;;;;;;12.85;9.25;;;22.90;99.90;;;;;;2603248;54;20030;31
2023/06/18 06:20:17;;;;;;;9.73;8.73;;;23.10;99.90;;;;;;2603287;54;20953;31
2023/06/18 06:22:55;;;;;;;8.88;7.97;;;23.20;99.90;;;;;;2603079;54;20932;31
2023/06/18 06:25:31;;;;;;;9.27;7.37;;;23.30;99.90;;;;;;2603112;54;20026;31
2023/06/18 06:28:07;;;;;;;8.63;6.87;;;23.40;99.90;;;;;;2602960;54;20022;31
2023/06/18 06:30:42;;;;;;;7.97;6.72;;;23.70;99.90;;;;;;2603108;54;20037;31
2023/06/18 06:33:16;;;;;;;8.07;6.68;;;23.90;99.90;;;;;;2602921;54;20980;31
2023/06/18 06:35:55;;;;;;;9.87;6.60;;;24.00;99.90;;;;;;2602909;54;20029;31
2023/06/18 06:38:31;;;;;;;7.13;6.43;;;24.20;99.90;;;;;;2602990;54;20022;31
2023/06/18 06:41:06;;;;;;;7.25;6.63;;;24.30;99.90;;;;;;2701364;39;20515;31
2023/06/18 06:43:43;;;;;;;7.45;6.50;;;24.50;99.90;;;;;;2621201;46;21145;31
2023/06/18 06:46:38;;;;;;;6.95;6.25;;;24.70;99.90;;;;;;2772649;31;20558;31
2023/06/18 06:49:25;;;;;;;10.15;6.75;;;24.80;99.90;;;;;;2602809;54;20027;31
2023/06/18 06:52:24;;;;;;;8.65;6.60;;;25.00;99.90;;;;;;2602989;54;20026;31
2023/06/18 06:55:00;;;;;;;7.45;5.60;;;25.10;99.90;;;;;;2621265;46;22356;31
2023/06/18 06:57:35;;;;;;;7.20;5.90;;;25.40;99.90;;;;;;2621281;46;21116;31
2023/06/18 07:00:13;;;;;;;6.25;5.55;;;25.50;99.90;;;;;;2602690;54;20030;31
2023/06/18 07:02:49;;;;;;;6.38;5.75;;;25.70;99.90;;;;;;2701590;39;20495;31
2023/06/18 07:05:26;;;;;;;6.97;5.80;;;25.70;99.90;;;;;;2621621;46;20550;31
2023/06/18 07:08:05;;;;;;;;;;;25.80;99.90;;;;;;2621501;46;22317;31
2023/06/18 07:10:41;;;;;;;6.32;5.78;;;26.00;99.90;;;;;;2602840;54;19993;31
2023/06/18 07:13:18;;;;;;;;;;;26.10;99.90;;;;;;2603187;54;20935;31
2023/06/18 07:15:53;;;;;;;6.90;5.63;;;26.20;99.90;;;;;;2621072;46;19941;31
2023/06/18 07:18:31;;;;;;;7.95;5.35;;;26.30;99.90;;;;;;2621553;46;20995;31
2023/06/18 07:21:06;;;;;;;7.05;5.72;;;26.40;99.90;;;;;;2602879;54;20048;31
2023/06/18 07:23:44;;;;;;;7.35;5.78;;;26.50;99.90;;;;;;2602714;54;20038;31
2023/06/18 07:26:19;;;;;;;5.40;4.90;;;26.70;99.90;;;;;;2621537;46;20042;31
2023/06/18 07:28:58;;;;;;;5.75;5.15;;;26.70;99.90;;;;;;2621312;46;20042;31
2023/06/18 07:31:34;;;;;;;5.53;5.03;;;26.90;99.90;;;;;;2602710;54;20038;31
2023/06/18 07:34:11;;;;;;;5.10;4.60;;;27.00;99.90;;;;;;2621194;46;20022;31
2023/06/18 07:36:47;;;;;;;5.20;4.70;;;27.20;99.90;;;;;;2602457;54;20895;31
2023/06/18 07:39:28;;;;;;;5.55;5.05;;;27.40;99.90;;;;;;2621346;46;21756;31
2023/06/18 07:42:03;;;;;;;5.80;5.10;;;27.60;99.90;;;;;;2621069;46;20062;31
2023/06/18 07:44:38;;;;;;;5.80;5.20;;;27.60;99.90;;;;;;2700946;39;21616;31
2023/06/18 07:47:14;;;;;;;5.32;4.82;;;27.60;99.90;;;;;;2602585;54;20768;31
2023/06/18 07:49:49;;;;;;;4.90;4.40;;;27.60;99.90;;;;;;2602708;54;20022;31
2023/06/18 07:52:25;;;;;;;5.28;4.78;;;27.70;99.90;;;;;;2620652;46;20030;31
2023/06/18 07:55:03;;;;;;;8.15;5.05;;;27.70;99.90;;;;;;2602499;54;20026;31
2023/06/18 07:57:40;;;;;;;4.93;4.43;;;27.60;99.90;;;;;;2602501;54;20088;31
2023/06/18 08:00:17;;;;;;;5.35;4.85;;;27.70;99.90;;;;;;2620894;47;20077;31
2023/06/18 08:02:52;;;;;;;10.90;4.68;;;27.80;99.90;;;;;;2602651;54;20137;31
2023/06/18 08:05:29;;;;;;;14.05;5.65;;;27.80;99.90;;;;;;2602504;54;20118;31
2023/06/18 08:08:05;;;;;;;6.55;5.28;;;27.80;99.90;;;;;;2602499;54;20026;31
2023/06/18 08:10:44;;;;;;;6.53;5.25;;;27.90;99.90;;;;;;2701093;39;21572;31
2023/06/18 08:13:21;;;;;;;6.65;5.60;;;28.00;99.90;;;;;;2621009;47;20026;31
2023/06/18 08:15:58;;;;;;;5.55;5.00;;;28.10;99.90;;;;;;2620897;47;20057;31
2023/06/18 08:18:34;;;;;;;8.00;5.15;;;28.00;99.90;;;;;;2602201;54;20034;31
2023/06/18 08:21:11;;;;;;;6.45;5.60;;;28.20;99.90;;;;;;2602193;54;20036;31
2023/06/18 08:23:47;;;;;;;7.57;5.47;;;28.20;99.90;;;;;;2602372;54;21179;31
2023/06/18 08:26:27;;;;;;;8.50;5.10;;;28.30;99.90;;;;;;2602409;54;20034;31
2023/06/18 08:29:01;;;;;;;5.30;4.50;;;28.40;99.90;;;;;;2620852;47;20740;31
2023/06/18 08:31:40;;;;;;;5.00;4.60;;;28.60;99.90;;;;;;2602444;54;20987;31
2023/06/18 08:34:16;;;;;;;4.57;3.78;;;28.90;99.90;;;;;;2602405;54;20026;31
2023/06/18 08:36:52;;;;;;;4.60;4.20;;;29.00;99.90;;;;;;2602518;54;20026;31
2023/06/18 08:39:29;;;;;;;6.43;4.33;;;29.10;99.90;;;;;;2602293;54;20069;31
2023/06/18 08:42:09;;;;;;;5.10;4.57;;;29.20;99.80;;;;;;2719331;39;20532;31
2023/06/18 08:44:45;;;;;;;4.43;4.03;;;29.20;99.30;;;;;;2602395;54;20641;31
2023/06/18 08:47:20;;;;;;;4.90;4.30;;;29.30;99.90;;;;;;2602558;54;20646;31
2023/06/18 08:49:56;;;;;;;4.90;4.30;;;29.30;99.00;;;;;;2621828;46;20033;31
2023/06/18 08:52:32;;;;;;;;;;;29.20;98.60;;;;;;2622019;46;20905;31
2023/06/18 08:55:13;;;;;;;4.93;4.35;;;29.20;98.90;;;;;;2621846;46;19941;31
2023/06/18 08:57:57;;;;;;;4.97;4.57;;;29.30;98.90;;;;;;2602277;54;20037;31
2023/06/18 09:00:33;;;;;;;4.97;4.47;;;29.30;96.80;;;;;;2603130;54;20876;31
2023/06/18 09:03:08;;;;;;;4.85;4.45;;;29.40;98.90;;;;;;2603091;54;20038;31
2023/06/18 09:05:45;;;;;;;5.28;4.50;;;29.40;97.30;;;;;;2602844;54;20032;31
2023/06/18 09:08:23;;;;;;;4.45;3.92;;;29.40;95.80;;;;;;2621459;46;20870;31
2023/06/18 09:11:00;;;;;;;4.40;4.00;;;29.40;94.80;;;;;;2701622;39;20532;31
2023/06/18 09:13:43;;;;;;;4.80;4.40;;;29.50;97.00;;;;;;2603219;54;20622;31
2023/06/18 09:16:18;;;;;;;4.78;4.38;;;29.50;96.70;;;;;;2602973;54;20037;31
2023/06/18 09:18:56;;;;;;;5.70;4.33;;;29.50;97.20;;;;;;2602945;54;20033;31
2023/06/18 09:21:40;;;;;;;4.53;4.00;;;29.70;96.10;;;;;;2621496;46;21096;31
2023/06/18 09:24:18;;;;;;;4.25;3.95;;;29.70;95.30;;;;;;2603035;54;20027;31
2023/06/18 09:27:02;;;;;;;5.30;4.32;;;29.80;94.20;;;;;;2603093;54;20038;31
2023/06/18 09:29:41;;;;;;;5.18;4.55;;;29.90;95.60;;;;;;2621437;46;20782;31
2023/06/18 09:32:17;;;;;;;4.40;4.10;;;29.50;95.10;;;;;;2602936;54;20031;31
2023/06/18 09:34:53;;;;;;;4.25;3.85;;;29.30;95.20;;;;;;2603032;54;20057;31
2023/06/18 09:37:29;;;;;;;4.40;3.80;;;29.00;94.30;;;;;;2603149;54;20061;31
2023/06/18 09:40:11;;;;;;;3.97;3.58;;;29.10;95.70;;;;;;2602859;54;20913;31
2023/06/18 09:42:48;;;;;;;5.40;4.30;;;29.20;93.10;;;;;;2602957;54;20023;31
2023/06/18 09:45:28;;;;;;;6.10;3.45;;;29.20;94.80;;;;;;2621604;46;20849;31
2023/06/18 09:48:03;;;;;;;3.80;3.50;;;29.00;94.80;;;;;;2602846;54;21875;31
2023/06/18 09:50:41;;;;;;;4.10;3.67;;;29.10;93.90;;;;;;2701458;39;21078;31
2023/06/18 09:53:14;;;;;;;5.55;4.00;;;29.20;95.90;;;;;;2603082;54;20027;31
2023/06/18 09:55:51;;;;;;;5.70;3.35;;;29.30;93.60;;;;;;2602708;54;20908;31
2023/06/18 09:58:41;;;;;;;4.05;3.65;;;29.10;92.10;;;;;;2602378;54;20978;31
2023/06/18 10:01:20;;;;;;;6.25;3.70;;;28.80;93.70;;;;;;2701382;39;20535;31
2023/06/18 10:03:56;;;;;;;4.15;3.65;;;28.70;94.50;;;;;;2603064;54;20889;31
2023/06/18 10:06:32;;;;;;;3.90;3.60;;;28.70;95.80;;;;;;2621472;46;20081;31
2023/06/18 10:09:09;;;;;;;4.10;3.70;;;28.60;93.90;;;;;;2602959;54;20749;31
2023/06/18 10:11:45;;;;;;;3.45;3.15;;;28.60;92.70;;;;;;2602994;54;20572;31
2023/06/18 10:14:22;;;;;;;3.60;3.30;;;28.60;92.90;;;;;;2621245;46;20104;31
2023/06/18 10:17:02;;;;;;;3.92;3.53;;;28.40;92.50;;;;;;2621101;46;20022;31
2023/06/18 10:19:46;;;;;;;4.63;3.72;;;28.20;94.40;;;;;;2603037;54;20023;31
2023/06/18 10:22:21;;;;;;;4.90;4.03;;;27.90;94.30;;;;;;2602984;54;20877;31
2023/06/18 10:24:59;;;;;;;4.05;3.65;;;27.60;94.70;;;;;;2602916;54;20045;31
2023/06/18 10:27:34;;;;;;;3.67;3.30;;;27.60;93.30;;;;;;2602959;54;20027;31
2023/06/18 10:30:12;;;;;;;4.78;3.42;;;27.50;93.40;;;;;;2602744;54;20022;31
2023/06/18 10:32:52;;;;;;;3.58;3.08;;;27.40;93.70;;;;;;2620983;46;20864;31
2023/06/18 10:35:27;;;;;;;5.10;3.40;;;27.20;93.70;;;;;;2603122;54;20063;31
2023/06/18 10:38:02;;;;;;;3.70;3.40;;;27.20;95.40;;;;;;2602751;54;21028;31
2023/06/18 10:40:42;;;;;;;3.40;3.10;;;27.30;95.70;;;;;;2602938;54;20580;31
2023/06/18 10:43:17;;;;;;;4.05;3.05;;;27.20;94.20;;;;;;2701552;39;20539;31
2023/06/18 10:46:11;;;;;;;3.80;2.47;;;27.00;94.10;;;;;;2621588;46;20746;31
2023/06/18 10:49:15;;;;;;;4.43;3.10;;;27.00;95.00;;;;;;2791094;31;20615;31
2023/06/18 10:52:29;;;;;;;3.47;3.00;;;26.70;94.60;;;;;;2602549;54;20026;31
2023/06/18 10:55:08;;;;;;;4.15;3.30;;;26.90;94.90;;;;;;2602969;54;20053;31
2023/06/18 10:57:45;;;;;;;4.68;3.03;;;27.10;96.60;;;;;;2602877;54;20026;31
2023/06/18 11:00:25;;;;;;;5.80;3.03;;;27.40;96.70;;;;;;2602982;54;20876;31
2023/06/18 11:03:04;;;;;;;3.00;2.80;;;27.60;94.50;;;;;;2602696;54;20115;31
2023/06/18 11:05:51;;;;;;;4.60;2.80;;;27.70;94.20;;;;;;2621172;46;20077;31
2023/06/18 11:08:32;;;;;;;4.45;3.40;;;27.90;92.60;;;;;;2602810;54;20863;31
2023/06/18 11:11:10;;;;;;;4.65;3.13;;;27.90;93.40;;;;;;2701041;39;20602;31
2023/06/18 11:13:53;;;;;;;4.00;3.70;;;27.70;93.20;;;;;;2602554;54;20053;31
2023/06/18 11:16:28;;;;;;;3.20;2.70;;;27.70;94.30;;;;;;2602710;54;20030;31
2023/06/18 11:19:04;;;;;;;3.60;3.30;;;27.70;94.00;;;;;;2602804;54;20064;31
2023/06/18 11:21:45;;;;;;;3.53;3.23;;;27.60;93.20;;;;;;2602875;54;20572;31
2023/06/18 11:24:20;;;;;;;3.45;3.15;;;27.40;94.20;;;;;;2602549;54;20910;31
2023/06/18 11:26:55;;;;;;;3.45;3.15;;;27.30;95.20;;;;;;2602462;54;20030;31
2023/06/18 11:29:32;;;;;;;3.30;3.00;;;27.30;95.80;;;;;;2602856;54;20908;31
2023/06/18 11:32:13;;;;;;;3.97;3.55;;;27.20;95.20;;;;;;2602592;54;20834;31
2023/06/18 11:34:49;;;;;;;4.72;3.65;;;27.00;95.90;;;;;;2620894;46;20784;31
2023/06/18 11:37:28;;;;;;;4.55;3.70;;;26.90;96.10;;;;;;2602562;54;20022;31
2023/06/18 11:40:07;;;;;;;3.78;3.08;;;26.70;96.80;;;;;;2602802;54;21403;31
2023/06/18 11:42:50;;;;;;;3.95;3.65;;;26.60;96.90;;;;;;2602848;54;20031;31
2023/06/18 11:45:26;;;;;;;3.55;3.25;;;26.50;96.80;;;;;;2621218;46;20038;31
2023/06/18 11:48:02;;;;;;;3.97;3.55;;;26.40;97.10;;;;;;2602718;54;20716;31
2023/06/18 11:50:38;;;;;;;4.88;3.60;;;26.40;97.40;;;;;;2602251;54;20027;31
2023/06/18 11:53:17;;;;;;;4.05;3.65;;;26.40;98.40;;;;;;2602439;54;20085;31
2023/06/18 11:55:53;;;;;;;3.95;3.65;;;26.40;97.30;;;;;;2621184;46;20054;31
2023/06/18 11:58:29;;;;;;;4.57;4.17;;;26.30;97.40;;;;;;2620911;46;20807;31
2023/06/18 12:01:05;;;;;;;4.40;4.00;;;26.10;97.80;;;;;;2602510;54;20254;31
2023/06/18 12:03:40;;;;;;;4.38;3.97;;;26.00;98.30;;;;;;2700861;39;21448;31
2023/06/18 12:06:16;;;;;;;4.53;3.93;;;26.00;98.30;;;;;;2621115;47;20034;31
2023/06/18 12:08:54;;;;;;;4.10;3.65;;;26.10;98.60;;;;;;2620885;47;20234;31
2023/06/18 12:11:39;;;;;;;5.18;4.68;;;26.20;98.70;;;;;;2602374;54;20032;31
2023/06/18 12:14:48;;;;;;;3.70;3.40;;;26.40;98.10;;;;;;2602278;54;20026;31
2023/06/18 12:17:30;;;;;;;4.28;3.75;;;26.50;96.80;;;;;;2602359;54;20911;31
2023/06/18 12:20:10;;;;;;;4.30;3.60;;;26.50;97.00;;;;;;2602334;54;20030;31
2023/06/18 12:22:45;;;;;;;4.35;3.95;;;26.40;97.70;;;;;;2603094;54;20892;31
2023/06/18 12:25:24;;;;;;;;;;;26.30;97.20;;;;;;2603394;54;20045;31
2023/06/18 12:27:59;;;;;;;4.70;3.70;;;26.40;98.30;;;;;;2603328;54;20626;31
2023/06/18 12:30:39;;;;;;;3.90;3.50;;;26.50;98.90;;;;;;2603009;54;20105;31
2023/06/18 12:33:16;;;;;;;4.63;3.80;;;26.70;98.10;;;;;;2621945;46;20877;31
2023/06/18 12:35:56;;;;;;;4.82;3.72;;;26.80;97.50;;;;;;2603473;54;20854;31
2023/06/18 12:38:41;;;;;;;4.20;3.80;;;26.90;97.50;;;;;;2603191;54;20022;31
2023/06/18 12:41:27;;;;;;;3.92;3.53;;;27.00;98.00;;;;;;2603388;54;20773;31
2023/06/18 12:44:03;;;;;;;4.15;3.75;;;27.20;96.00;;;;;;2603429;54;20026;31
2023/06/18 12:46:39;;;;;;;4.07;3.78;;;27.30;96.30;;;;;;2603800;46;20023;31
2023/06/18 12:49:18;;;;;;;5.05;3.50;;;27.40;94.90;;;;;;2603390;54;20022;31
2023/06/18 12:51:53;;;;;;;3.35;3.05;;;27.40;97.10;;;;;;2603375;54;21155;31
2023/06/18 12:54:29;;;;;;;4.32;3.58;;;27.50;96.30;;;;;;2603049;54;20057;31
2023/06/18 12:57:03;;;;;;;4.25;3.30;;;27.60;96.80;;;;;;2603274;54;20022;31
2023/06/18 12:59:46;;;;;;;3.30;3.00;;;27.70;95.10;;;;;;2603264;54;20052;31
2023/06/18 13:02:22;;;;;;;3.67;3.38;;;27.80;94.80;;;;;;2603309;54;20903;31
2023/06/18 13:04:57;;;;;;;3.92;3.47;;;27.80;94.40;;;;;;2603248;54;20850;31
2023/06/18 13:07:33;;;;;;;3.10;2.80;;;27.90;93.70;;;;;;2603187;54;20766;31
2023/06/18 13:10:06;;;;;;;3.75;3.45;;;27.90;93.80;;;;;;2621486;46;21177;31
2023/06/18 13:12:42;;;;;;;3.65;3.30;;;28.00;94.60;;;;;;2603267;54;20038;31
2023/06/18 13:15:20;;;;;;;;;;;28.00;93.30;;;;;;2603445;54;20861;31
2023/06/18 13:17:56;;;;;;;3.60;3.30;;;27.90;92.60;;;;;;2602979;54;20824;31
2023/06/18 13:20:32;;;;;;;4.50;3.03;;;27.80;92.90;;;;;;2602931;54;20030;31
2023/06/18 13:23:10;;;;;;;4.47;3.28;;;27.90;92.40;;;;;;2621777;46;20049;31
2023/06/18 13:25:45;;;;;;;;;;;28.00;93.90;;;;;;2603240;54;20032;31
2023/06/18 13:28:23;;;;;;;4.07;3.13;;;27.90;93.70;;;;;;2603239;54;20681;31
2023/06/18 13:31:03;;;;;;;3.85;3.55;;;27.80;93.90;;;;;;2602984;54;20038;31
2023/06/18 13:33:40;;;;;;;3.90;3.60;;;27.80;94.40;;;;;;2602709;54;20081;31
2023/06/18 13:36:18;;;;;;;6.05;3.88;;;27.70;93.90;;;;;;2602955;54;20899;31
2023/06/18 13:38:54;;;;;;;5.72;3.97;;;27.60;94.30;;;;;;2621454;46;20053;31
2023/06/18 13:41:29;;;;;;;4.50;3.60;;;27.50;95.10;;;;;;2602879;54;20030;31
2023/06/18 13:44:05;;;;;;;;;;;27.50;94.20;;;;;;2603415;54;21275;31
2023/06/18 13:46:43;;;;;;;3.70;3.40;;;27.30;93.40;;;;;;2621286;46;21398;31